KEWB/EWB METAR and TAF weather

Enter ICAO airport designator
Station Type Date Time Source
KEWB METAR 2019/12/07 14:53 UTC NOAA

KEWB 071453Z 32009KT 290V360 10SM CLR M01/M08 A3030 RMK AO2 SLP262 T10061083 51020 $


Station Type Date Time Source
KEWB Decoded METAR 2019/12/07 14:53 UTC NOAA

NEW BEDFORD REGIONAL AIRPORT, MA, United States (KEWB) 41-41N 070-58W 23M
Dec 07, 2019 - 09:53 AM EST / 2019.12.07 1453 UTC
Wind: from the NW (320 degrees) at 10 MPH (9 KT) (direction variable):0
Visibility: 10 mile(s):0
Sky conditions: clear
Temperature: 30.9 F (-0.6 C)
Windchill: 23 F (-5 C):1
Dew Point: 17.1 F (-8.3 C)
Relative Humidity: 55%
Pressure (altimeter): 30.3 in. Hg (1026 hPa)
Pressure tendency: 0.06 inches (2.0 hPa) higher than three hours ago
ob: KEWB 071453Z 32009KT 290V360 10SM CLR M01/M08 A3030 RMK AO2 SLP262 T10061083 51020
cycle: 15

Station Type Date Time Source
KEWB TAF UTC NOAA

Error!

Example: see airport list